createdAt,value
2022-10-31T00:01:22.730Z,11.38
2022-10-31T00:03:50.124Z,12.15
2022-10-31T00:06:19.325Z,11.63
2022-10-31T00:08:47.467Z,12.27
2022-10-31T00:11:15.005Z,11.95
2022-10-31T00:13:42.337Z,11.10
2022-10-31T00:16:24.924Z,12.43
2022-10-31T00:18:54.898Z,11.13
2022-10-31T00:21:23.130Z,12.73
2022-10-31T00:23:50.366Z,12.15
2022-10-31T00:26:18.343Z,12.40
2022-10-31T00:28:45.914Z,13.93
2022-10-31T00:31:14.169Z,14.27
2022-10-31T00:33:42.324Z,13.52
2022-10-31T00:36:13.725Z,14.02
2022-10-31T00:38:45.799Z,12.73
2022-10-31T00:41:14.509Z,12.93
2022-10-31T00:43:43.069Z,13.10
2022-10-31T00:46:11.510Z,12.27
2022-10-31T00:48:38.932Z,12.18
2022-10-31T00:51:06.686Z,12.43
2022-10-31T00:53:34.187Z,12.15
2022-10-31T00:56:01.885Z,11.93
2022-10-31T00:58:29.260Z,12.70
2022-10-31T01:00:56.712Z,13.18
2022-10-31T01:03:26.007Z,13.43
2022-10-31T01:06:13.666Z,13.82
2022-10-31T01:08:41.057Z,13.43
2022-10-31T01:11:18.793Z,14.15
2022-10-31T01:13:47.083Z,13.80
2022-10-31T01:16:17.934Z,15.07
2022-10-31T01:18:45.879Z,13.50
2022-10-31T01:21:19.088Z,13.68
2022-10-31T01:23:46.795Z,13.63
2022-10-31T01:26:20.533Z,14.23
2022-10-31T01:29:02.803Z,13.88
2022-10-31T01:31:32.649Z,15.07
2022-10-31T01:34:00.617Z,14.30
2022-10-31T01:36:33.715Z,15.50
2022-10-31T01:39:06.843Z,14.50
2022-10-31T01:41:37.599Z,13.32
2022-10-31T01:44:25.869Z,14.23
2022-10-31T01:47:16.422Z,15.23
2022-10-31T01:49:47.869Z,14.85
2022-10-31T01:52:22.625Z,13.70
2022-10-31T01:54:54.926Z,14.82
2022-10-31T01:57:23.666Z,14.65
2022-10-31T01:59:56.144Z,14.85
2022-10-31T02:02:25.333Z,14.80
2022-10-31T02:04:53.198Z,13.68
2022-10-31T02:07:59.982Z,14.43
2022-10-31T02:10:33.462Z,15.35
2022-10-31T02:13:05.235Z,15.57
2022-10-31T02:15:35.642Z,14.88
2022-10-31T02:18:04.281Z,16.60
2022-10-31T02:20:54.595Z,16.13
2022-10-31T02:23:47.881Z,15.52
2022-10-31T02:26:43.034Z,15.85
2022-10-31T02:29:33.303Z,15.77
2022-10-31T02:32:21.020Z,15.85
2022-10-31T02:34:51.408Z,15.38
2022-10-31T02:37:33.518Z,16.02
2022-10-31T02:40:13.192Z,14.32
2022-10-31T02:43:34.615Z,16.63
2022-10-31T02:46:35.538Z,16.25
2022-10-31T02:49:14.810Z,17.70
2022-10-31T02:51:42.261Z,16.50
2022-10-31T02:54:23.887Z,16.98
2022-10-31T02:57:03.683Z,15.65
2022-10-31T02:59:35.071Z,15.90
2022-10-31T03:02:19.370Z,16.55
2022-10-31T03:05:09.638Z,15.60
2022-10-31T03:08:03.851Z,16.60
2022-10-31T03:16:09.029Z,16.05
2022-10-31T03:18:43.679Z,17.42
2022-10-31T03:23:44.639Z,15.55
2022-10-31T03:26:22.759Z,18.15
2022-10-31T03:28:59.020Z,20.77
2022-10-31T03:31:32.224Z,17.63
2022-10-31T03:34:02.506Z,17.27
2022-10-31T03:36:37.515Z,16.05
2022-10-31T03:39:09.767Z,16.63
2022-10-31T03:41:43.626Z,15.88
2022-10-31T03:44:18.701Z,16.35
2022-10-31T03:46:50.734Z,15.00
2022-10-31T03:49:18.485Z,17.92
2022-10-31T03:52:16.942Z,15.63
2022-10-31T03:54:46.845Z,17.08
2022-10-31T03:57:44.471Z,16.83
2022-10-31T04:00:14.820Z,17.35
2022-10-31T04:03:05.768Z,18.13
2022-10-31T04:05:36.413Z,17.95
2022-10-31T04:08:08.781Z,17.42
2022-10-31T04:10:38.738Z,17.23
2022-10-31T04:13:11.225Z,17.17
2022-10-31T04:15:48.576Z,18.60
2022-10-31T04:18:17.567Z,17.30
2022-10-31T04:20:45.179Z,18.05
2022-10-31T04:23:23.147Z,18.80
2022-10-31T04:25:51.434Z,18.23
2022-10-31T04:30:52.442Z,17.95
2022-10-31T04:33:20.442Z,18.88
2022-10-31T04:35:48.348Z,18.38
2022-10-31T04:38:15.765Z,19.83
2022-10-31T04:40:45.438Z,17.85
2022-10-31T04:43:41.459Z,18.10
2022-10-31T04:46:08.797Z,19.35
2022-10-31T04:48:36.143Z,18.23
2022-10-31T04:51:06.276Z,17.55
2022-10-31T04:53:33.969Z,17.38
2022-10-31T04:56:20.007Z,18.00
2022-10-31T04:58:51.106Z,17.63
2022-10-31T05:01:19.363Z,17.52
2022-10-31T05:03:46.740Z,18.65
2022-10-31T05:06:14.012Z,16.65
2022-10-31T05:08:42.999Z,17.27
2022-10-31T05:11:12.084Z,16.35
2022-10-31T05:13:39.955Z,17.52
2022-10-31T05:16:10.172Z,18.30
2022-10-31T05:18:56.262Z,17.67
2022-10-31T05:21:56.072Z,16.58
2022-10-31T05:24:24.274Z,17.83
2022-10-31T05:26:51.666Z,16.75
2022-10-31T05:29:18.944Z,16.63
2022-10-31T05:31:46.270Z,16.67
2022-10-31T05:34:33.428Z,17.10
2022-10-31T05:37:21.284Z,16.70
2022-10-31T05:39:48.568Z,18.33
2022-10-31T05:42:17.574Z,16.48
2022-10-31T05:44:44.903Z,16.83
2022-10-31T05:47:35.291Z,18.35
2022-10-31T05:50:21.416Z,15.60
2022-10-31T05:52:59.164Z,16.27
2022-10-31T05:55:32.614Z,16.38
2022-10-31T05:58:08.189Z,16.80
2022-10-31T06:00:37.735Z,16.33
2022-10-31T06:05:50.604Z,16.77
2022-10-31T06:08:21.585Z,17.50
2022-10-31T06:10:49.970Z,17.30
2022-10-31T06:13:23.679Z,17.42
2022-10-31T06:16:00.362Z,16.58
2022-10-31T06:18:34.851Z,17.45
2022-10-31T06:21:02.426Z,15.35
2022-10-31T06:23:29.710Z,16.73
2022-10-31T06:26:17.042Z,16.48
2022-10-31T06:28:44.352Z,17.15
2022-10-31T06:31:24.146Z,17.52
2022-10-31T06:33:51.469Z,16.10
2022-10-31T06:36:18.785Z,16.48
2022-10-31T06:38:46.087Z,16.45
2022-10-31T06:41:14.276Z,17.05
2022-10-31T06:43:48.282Z,16.00
2022-10-31T06:46:34.180Z,15.65
2022-10-31T06:49:19.908Z,15.60
2022-10-31T06:51:55.298Z,16.45
2022-10-31T06:54:23.051Z,16.33
2022-10-31T06:56:50.346Z,18.05
2022-10-31T06:59:17.803Z,18.30
2022-10-31T07:02:12.006Z,16.48
2022-10-31T07:04:40.929Z,15.90
2022-10-31T07:07:09.201Z,17.15
2022-10-31T07:09:38.679Z,15.73
2022-10-31T07:12:06.626Z,16.08
2022-10-31T07:14:38.076Z,17.40
2022-10-31T07:17:06.233Z,18.33
2022-10-31T07:19:40.383Z,17.75
2022-10-31T07:22:07.672Z,17.38
2022-10-31T07:24:35.908Z,16.20
2022-10-31T07:27:21.837Z,16.00
2022-10-31T07:29:49.700Z,15.90
2022-10-31T07:32:17.826Z,14.52
2022-10-31T07:34:52.606Z,15.25
2022-10-31T07:37:22.964Z,14.70
2022-10-31T07:39:50.263Z,14.50
2022-10-31T07:42:17.572Z,13.40
2022-10-31T07:44:46.375Z,13.88
2022-10-31T07:47:42.835Z,13.48
2022-10-31T07:50:31.002Z,12.25
2022-10-31T07:53:17.291Z,12.18
2022-10-31T07:55:51.850Z,12.20
2022-10-31T07:58:20.208Z,12.32
2022-10-31T08:00:49.359Z,11.90
2022-10-31T08:03:27.153Z,11.25
2022-10-31T08:06:17.267Z,11.00
2022-10-31T08:09:03.068Z,9.98
2022-10-31T08:11:31.979Z,11.57
2022-10-31T08:14:01.135Z,10.25
2022-10-31T08:16:28.502Z,10.85
2022-10-31T08:19:00.497Z,10.95
2022-10-31T08:21:29.639Z,10.60
2022-10-31T08:23:58.022Z,9.88
2022-10-31T08:26:25.914Z,10.40
2022-10-31T08:28:55.749Z,10.73
2022-10-31T08:31:32.938Z,10.65
2022-10-31T08:34:19.397Z,9.15
2022-10-31T08:37:05.050Z,9.05
2022-10-31T08:39:42.098Z,9.63
2022-10-31T08:42:09.400Z,9.13
2022-10-31T08:44:36.698Z,10.13
2022-10-31T08:47:05.118Z,8.90
2022-10-31T08:49:34.870Z,9.60
2022-10-31T08:52:03.653Z,8.90
2022-10-31T08:54:35.456Z,8.02
2022-10-31T08:57:25.278Z,8.23
2022-10-31T08:59:53.854Z,8.93
2022-10-31T09:02:21.160Z,9.60
2022-10-31T09:04:51.945Z,9.48
2022-10-31T09:07:21.191Z,10.32
2022-10-31T09:09:49.151Z,9.13
2022-10-31T09:12:18.025Z,8.65
2022-10-31T09:15:03.898Z,11.23
2022-10-31T09:18:10.411Z,8.85
2022-10-31T09:20:58.257Z,9.60
2022-10-31T09:23:25.786Z,11.45
2022-10-31T09:25:54.464Z,9.55
2022-10-31T09:28:40.323Z,25.08
2022-10-31T09:31:14.802Z,11.85
2022-10-31T09:34:00.854Z,9.98
2022-10-31T09:36:38.824Z,10.23
2022-10-31T09:39:13.430Z,11.18
2022-10-31T09:42:02.746Z,11.57
2022-10-31T09:45:01.547Z,10.30
2022-10-31T09:47:42.141Z,9.85
2022-10-31T09:50:43.877Z,12.88
2022-10-31T09:53:43.157Z,11.50
2022-10-31T09:58:47.981Z,10.18
2022-10-31T10:01:48.170Z,9.82
2022-10-31T10:04:34.363Z,10.45
2022-10-31T12:11:09.339Z,7.05
2022-10-31T12:14:04.067Z,7.70
2022-10-31T12:16:34.382Z,8.60
2022-10-31T12:19:25.325Z,7.53
2022-10-31T12:22:03.577Z,8.13
2022-10-31T12:24:41.438Z,7.50
2022-10-31T12:27:25.214Z,7.25
2022-10-31T12:30:13.791Z,7.25
2022-10-31T12:33:18.229Z,7.70
2022-10-31T12:36:21.630Z,8.27
2022-10-31T12:38:57.207Z,8.32
2022-10-31T12:41:45.399Z,6.97
2022-10-31T12:44:31.558Z,7.60
2022-10-31T12:47:30.147Z,7.50
2022-10-31T12:50:40.254Z,7.63
2022-10-31T12:53:23.716Z,6.93
2022-10-31T12:56:07.032Z,5.88
2022-10-31T12:58:53.802Z,6.32
2022-10-31T13:01:29.777Z,6.82
2022-10-31T13:03:59.440Z,6.03
2022-10-31T13:06:44.295Z,6.72
2022-10-31T13:09:18.697Z,7.47
2022-10-31T13:11:54.719Z,7.38
2022-10-31T13:14:34.216Z,7.30
2022-10-31T13:17:03.095Z,6.75
2022-10-31T13:19:39.497Z,6.85
2022-10-31T13:22:21.465Z,6.20
2022-10-31T13:24:58.270Z,6.65
2022-10-31T13:27:34.812Z,6.43
2022-10-31T13:30:18.436Z,6.25
2022-10-31T13:32:51.063Z,5.93
2022-10-31T13:35:28.232Z,5.90
2022-10-31T13:38:24.188Z,5.63
2022-10-31T13:40:57.432Z,5.65
2022-10-31T13:43:46.533Z,5.05
2022-10-31T13:46:35.732Z,5.53
2022-10-31T13:49:04.641Z,6.35
2022-10-31T13:51:35.162Z,4.60
2022-10-31T13:54:20.096Z,5.53
2022-10-31T13:56:51.299Z,5.35
2022-10-31T13:59:32.065Z,5.03
2022-10-31T14:02:02.595Z,4.60
2022-10-31T14:04:46.267Z,4.53
2022-10-31T14:07:25.117Z,4.90
2022-10-31T14:09:57.262Z,4.85
2022-10-31T14:12:44.641Z,4.65
2022-10-31T14:15:30.277Z,4.60
2022-10-31T14:18:04.416Z,5.05
2022-10-31T14:20:45.023Z,4.80
2022-10-31T14:23:30.727Z,4.35
2022-10-31T14:26:18.855Z,4.75
2022-10-31T14:28:47.466Z,4.93
2022-10-31T14:31:33.646Z,5.15
2022-10-31T14:34:24.172Z,5.15
2022-10-31T14:37:13.303Z,4.15
2022-10-31T14:39:43.345Z,4.70
2022-10-31T14:42:33.958Z,5.05
2022-10-31T14:45:04.065Z,4.00
2022-10-31T14:47:37.201Z,5.25
2022-10-31T14:50:22.876Z,4.03
2022-10-31T14:52:54.300Z,4.70
2022-10-31T14:55:23.682Z,4.40
2022-10-31T14:57:56.796Z,4.38
2022-10-31T15:00:25.975Z,4.72
2022-10-31T15:03:16.962Z,4.53
2022-10-31T15:05:57.463Z,4.78
2022-10-31T15:11:11.829Z,4.18
2022-10-31T15:13:46.608Z,4.82
2022-10-31T15:16:17.436Z,4.28
2022-10-31T15:18:58.292Z,3.83
2022-10-31T15:21:29.078Z,3.97
2022-10-31T15:23:59.435Z,4.00
2022-10-31T15:26:38.706Z,3.83
2022-10-31T15:29:13.016Z,4.18
2022-10-31T15:31:54.202Z,4.93
2022-10-31T15:34:36.807Z,3.95
2022-10-31T15:37:04.637Z,3.95
2022-10-31T15:39:32.579Z,4.40
2022-10-31T15:42:00.765Z,5.15
2022-10-31T15:44:31.753Z,4.13
2022-10-31T15:47:16.883Z,4.13
2022-10-31T15:49:56.244Z,4.00
2022-10-31T15:52:35.456Z,4.28
2022-10-31T15:55:10.112Z,4.53
2022-10-31T16:00:32.269Z,4.30
2022-10-31T16:03:20.562Z,4.57
2022-10-31T16:05:56.455Z,4.53
2022-10-31T16:08:24.488Z,5.25
2022-10-31T16:10:52.183Z,4.07
2022-10-31T16:13:29.112Z,4.13
2022-10-31T16:18:51.547Z,3.58
2022-10-31T16:21:45.700Z,4.60
2022-10-31T16:24:29.711Z,4.43
2022-10-31T16:27:07.460Z,4.50
2022-10-31T16:29:43.539Z,4.32
2022-10-31T16:32:35.528Z,4.00
2022-10-31T16:35:12.024Z,4.80
2022-10-31T16:37:42.971Z,3.70
2022-10-31T16:40:14.852Z,4.18
2022-10-31T16:42:43.140Z,4.15
2022-10-31T16:45:18.650Z,4.68
2022-10-31T16:47:46.643Z,5.70
2022-10-31T16:50:23.461Z,4.22
2022-10-31T16:53:12.997Z,5.80
2022-10-31T16:55:47.677Z,5.53
2022-10-31T16:58:18.940Z,5.10
2022-10-31T17:00:46.762Z,4.43
2022-10-31T17:03:14.070Z,4.15
2022-10-31T17:05:41.424Z,4.60
2022-10-31T17:08:09.039Z,5.75
2022-10-31T17:10:37.025Z,5.63
2022-10-31T17:13:06.539Z,6.50
2022-10-31T17:15:44.335Z,5.28
2022-10-31T17:18:16.164Z,4.43
2022-10-31T17:20:44.628Z,4.28
2022-10-31T17:23:13.809Z,5.45
2022-10-31T17:25:42.041Z,4.05
2022-10-31T17:28:13.787Z,4.97
2022-10-31T17:30:42.072Z,4.68
2022-10-31T17:33:14.285Z,4.45
2022-10-31T17:35:47.078Z,4.38
2022-10-31T17:38:14.306Z,3.83
2022-10-31T17:40:45.024Z,5.07
2022-10-31T17:43:12.777Z,4.35
2022-10-31T17:45:41.712Z,4.00
2022-10-31T17:48:12.813Z,4.30
2022-10-31T17:50:40.233Z,4.70
2022-10-31T17:53:07.566Z,4.35
2022-10-31T17:55:37.338Z,4.90
2022-10-31T17:58:05.329Z,4.68
2022-10-31T18:00:33.185Z,3.90
2022-10-31T18:03:03.329Z,4.38
2022-10-31T18:05:31.482Z,3.78
2022-10-31T18:08:03.827Z,4.95
2022-10-31T18:10:31.989Z,4.78
2022-10-31T18:12:59.556Z,4.43
2022-10-31T18:15:27.091Z,4.22
2022-10-31T18:17:54.367Z,4.25
2022-10-31T18:20:21.662Z,4.45
2022-10-31T18:22:49.173Z,4.15
2022-10-31T18:25:16.603Z,4.38
2022-10-31T18:27:43.844Z,4.65
2022-10-31T18:30:11.425Z,4.22
2022-10-31T18:32:38.746Z,5.13
2022-10-31T18:35:06.356Z,5.47
2022-10-31T18:37:33.680Z,5.18
2022-10-31T18:40:00.939Z,5.43
2022-10-31T18:42:28.193Z,6.75
2022-10-31T18:44:55.518Z,4.55
2022-10-31T18:47:22.787Z,4.47
2022-10-31T18:49:50.262Z,4.57
2022-10-31T18:52:17.577Z,5.10
2022-10-31T18:54:44.916Z,5.45
2022-10-31T18:57:13.182Z,4.45
2022-10-31T18:59:40.473Z,4.85
2022-10-31T19:02:07.838Z,4.78
2022-10-31T19:04:35.161Z,4.05
2022-10-31T19:07:02.434Z,4.47
2022-10-31T19:09:30.893Z,4.50
2022-10-31T19:11:58.154Z,5.70
2022-10-31T19:14:25.375Z,4.97
2022-10-31T19:16:53.339Z,4.38
2022-10-31T19:19:20.903Z,4.93
2022-10-31T19:21:48.182Z,4.60
2022-10-31T19:24:15.463Z,4.40
2022-10-31T19:26:42.770Z,5.13
2022-10-31T19:29:10.518Z,4.55
2022-10-31T19:31:37.815Z,4.45
2022-10-31T19:34:05.244Z,4.55
2022-10-31T19:36:32.590Z,5.22
2022-10-31T19:38:59.845Z,5.60
2022-10-31T19:41:28.437Z,4.57
2022-10-31T19:43:58.438Z,4.38
2022-10-31T19:46:53.275Z,4.85
2022-10-31T19:49:13.199Z,4.22
2022-10-31T19:51:40.454Z,4.55
2022-10-31T19:54:07.788Z,4.85
2022-10-31T19:56:35.076Z,5.47
2022-10-31T19:59:03.944Z,4.60
2022-10-31T20:01:31.547Z,5.95
2022-10-31T20:03:58.953Z,4.97
2022-10-31T20:06:33.409Z,4.72
2022-10-31T20:09:07.885Z,5.10
2022-10-31T20:11:37.224Z,4.60
2022-10-31T20:14:04.906Z,5.47
2022-10-31T20:16:32.615Z,4.40
2022-10-31T20:18:59.953Z,4.82
2022-10-31T20:21:29.957Z,4.60
2022-10-31T20:24:03.563Z,4.38
2022-10-31T20:26:32.710Z,4.97
2022-10-31T20:29:01.465Z,4.03
2022-10-31T20:31:31.613Z,5.28
2022-10-31T20:33:59.407Z,5.45
2022-10-31T20:36:28.753Z,4.30
2022-10-31T20:38:56.402Z,4.82
2022-10-31T20:41:23.700Z,5.05
2022-10-31T20:43:51.050Z,5.05
2022-10-31T20:46:21.556Z,4.72
2022-10-31T20:48:49.463Z,4.85
2022-10-31T20:51:20.975Z,4.78
2022-10-31T20:53:52.662Z,4.72
2022-10-31T20:56:22.681Z,5.43
2022-10-31T20:58:50.399Z,4.80
2022-10-31T21:01:27.033Z,4.88
2022-10-31T21:03:54.918Z,4.75
2022-10-31T21:06:23.487Z,5.35
2022-10-31T21:08:51.356Z,5.30
2022-10-31T21:11:28.211Z,4.65
2022-10-31T21:13:55.712Z,5.00
2022-10-31T21:16:29.112Z,5.40
2022-10-31T21:18:56.867Z,4.40
2022-10-31T21:21:33.514Z,4.35
2022-10-31T21:24:15.576Z,5.13
2022-10-31T21:26:46.028Z,4.82
2022-10-31T21:29:14.930Z,5.22
2022-10-31T21:31:43.335Z,4.63
2022-10-31T21:34:11.088Z,4.57
2022-10-31T21:36:38.552Z,5.55
2022-10-31T21:39:07.261Z,5.30
2022-10-31T21:41:34.767Z,5.25
2022-10-31T21:44:02.452Z,5.18
2022-10-31T21:46:32.132Z,4.78
2022-10-31T21:49:02.004Z,4.63
2022-10-31T21:51:31.730Z,4.85
2022-10-31T21:54:17.984Z,5.07
2022-10-31T21:56:45.668Z,5.22
2022-10-31T21:59:13.404Z,5.35
2022-10-31T22:01:41.045Z,5.30
2022-10-31T22:04:09.233Z,6.32
2022-10-31T22:06:36.926Z,6.05
2022-10-31T22:09:06.733Z,5.28
2022-10-31T22:11:34.468Z,5.80
2022-10-31T22:14:02.634Z,5.97
2022-10-31T22:16:30.991Z,5.25
2022-10-31T22:19:00.148Z,5.22
2022-10-31T22:21:28.732Z,5.30
2022-10-31T22:48:02.105Z,4.78
2022-10-31T23:04:04.082Z,6.80
2022-10-31T23:26:06.914Z,5.57
2022-10-31T23:28:34.250Z,5.47
2022-10-31T23:31:01.531Z,6.38
2022-10-31T23:33:31.566Z,6.25
2022-10-31T23:35:58.985Z,5.13
2022-10-31T23:38:26.788Z,5.80
2022-10-31T23:40:54.138Z,5.25
2022-10-31T23:43:21.382Z,5.68
2022-10-31T23:45:48.603Z,5.80
2022-10-31T23:48:15.924Z,6.15
2022-10-31T23:50:47.662Z,5.78
2022-10-31T23:53:14.954Z,5.55
2022-10-31T23:55:42.263Z,5.68
2022-10-31T23:58:09.593Z,5.80
